Time;durP1;ratioP1;P1;durP2;ratioP2;P2;SDS_P1;SDS_P2;PMS_P1;PMS_P2;Temp;Humidity;BMP_temperature;BMP_pressure;BME280_temperature;BME280_humidity;BME280_pressure;Samples;Min_cycle;Max_cycle;Signal;HPM_P1;HPM_P2
2022/06/09 00:01:04;;;;;;;2.57;2.37;;;;;;;-143.84;86.31;45121.44;5051276;28;20445;-72
2022/06/09 00:03:35;;;;;;;6.03;2.77;;;;;;;-143.84;86.28;45092.88;5051104;28;20508;-72
2022/06/09 00:06:03;;;;;;;3.33;3.07;;;;;;;-143.84;86.17;45081.44;5051266;28;20442;-72
2022/06/09 00:08:32;;;;;;;5.97;2.97;;;;;;;-143.84;86.34;45100.47;5051027;28;20543;-72
2022/06/09 00:11:02;;;;;;;3.00;2.37;;;;;;;-143.84;86.11;45121.44;5051087;28;20491;-72
2022/06/09 00:13:29;;;;;;;6.40;2.90;;;;;;;-143.84;86.03;45121.44;5051330;28;20449;-72
2022/06/09 00:15:56;;;;;;;7.27;3.00;;;;;;;-143.84;85.60;45083.34;5051199;28;20499;-72
2022/06/09 00:18:25;;;;;;;5.63;2.90;;;;;;;-143.84;85.65;45085.25;5051071;28;20437;-72
2022/06/09 00:20:52;;;;;;;3.07;2.43;;;;;;;-143.84;85.51;45111.91;5050683;28;20434;-72
2022/06/09 00:23:20;;;;;;;3.30;2.37;;;;;;;-143.84;85.42;45108.09;5050658;28;20458;-72
2022/06/09 00:25:48;;;;;;;2.47;2.30;;;;;;;-143.84;85.29;45092.88;5050548;28;20539;-72
2022/06/09 00:28:15;;;;;;;10.70;3.47;;;;;;;-143.84;84.92;45106.19;5050867;28;20799;-72
2022/06/09 00:30:43;;;;;;;7.00;2.60;;;;;;;-143.84;85.48;45119.53;5050607;28;20475;-72
2022/06/09 00:33:10;;;;;;;3.30;2.60;;;;;;;-143.84;85.18;45079.53;5050803;28;20469;-72
2022/06/09 00:35:39;;;;;;;4.30;2.77;;;;;;;-143.84;85.34;45119.53;5049962;28;20430;-72
2022/06/09 00:38:06;;;;;;;3.20;3.00;;;;;;;-143.84;85.37;45098.56;5050008;28;20446;-72
2022/06/09 00:40:33;;;;;;;3.73;3.30;;;;;;;-143.84;85.30;45102.38;5050583;28;20437;-72
2022/06/09 00:43:01;;;;;;;5.10;3.30;;;;;;;-143.84;85.25;45106.19;5050401;28;20869;-72
2022/06/09 00:45:33;;;;;;;3.43;2.87;;;;;;;-143.84;85.14;45121.44;5050100;28;20553;-72
2022/06/09 00:48:19;;;;;;;2.87;2.63;;;;;;;-143.84;85.06;45071.91;5050473;28;20448;-72
2022/06/09 00:50:51;;;;;;;4.93;2.90;;;;;;;-143.84;85.24;45111.91;5048948;28;20536;-72
2022/06/09 00:53:23;;;;;;;2.80;2.60;;;;;;;-143.84;84.92;45113.81;5050338;28;20442;-72
2022/06/09 00:55:52;;;;;;;2.63;2.40;;;;;;;-143.84;84.83;45129.03;5050451;28;20511;-72
2022/06/09 00:58:23;;;;;;;2.90;2.70;;;;;;;-143.84;84.66;45110.00;5050113;28;20495;-72
2022/06/09 01:00:55;;;;;;;7.10;3.00;;;;;;;-143.84;84.78;45098.56;5050004;28;20446;-72
2022/06/09 01:03:25;;;;;;;3.67;3.30;;;;;;;-143.84;84.77;45090.97;5050187;28;20860;-72
2022/06/09 01:06:03;;;;;;;5.13;2.60;;;;;;;-143.84;84.89;45140.47;5050112;28;20859;-72
2022/06/09 01:08:32;;;;;;;4.63;2.90;;;;;;;-143.84;85.18;45100.47;5049824;28;21140;-72
2022/06/09 01:10:59;;;;;;;3.30;2.60;;;;;;;-143.84;85.31;45102.38;5049650;28;20507;-72
2022/06/09 01:13:27;;;;;;;3.60;3.27;;;;;;;-143.84;85.25;45068.13;5049549;28;20438;-72
2022/06/09 01:16:03;;;;;;;9.77;3.10;;;;;;;-143.84;85.30;45119.53;5049774;28;20434;-72
2022/06/09 01:18:41;;;;;;;3.37;2.90;;;;;;;-143.84;85.82;45127.13;5049668;28;20434;-72
2022/06/09 01:21:24;;;;;;;8.60;3.40;;;;;;;-143.84;86.02;45090.97;5049723;28;20778;-72
2022/06/09 01:24:29;;;;;;;2.93;2.73;;;;;;;-143.84;86.35;45100.47;5049571;28;20515;-72
2022/06/09 01:27:17;;;;;;;6.03;3.00;;;;;;;-143.84;86.41;45115.72;4995103;28;20451;-72
2022/06/09 01:30:03;;;;;;;2.93;2.73;;;;;;;-143.84;86.50;45121.44;5009746;28;21025;-72
2022/06/09 01:32:36;;;;;;;6.50;2.47;;;;;;;-143.84;86.05;45092.88;5009774;28;20447;-72
2022/06/09 01:35:16;;;;;;;3.10;2.80;;;;;;;-143.84;85.54;45123.34;5009583;28;21008;-72
2022/06/09 01:37:47;;;;;;;5.53;2.80;;;;;;;-143.84;85.84;45092.88;5009767;28;20454;-72
2022/06/09 01:40:17;;;;;;;2.53;2.33;;;;;;;-143.84;86.03;45098.56;5009866;28;20894;-72
2022/06/09 01:42:46;;;;;;;8.57;3.20;;;;;;;-143.84;86.22;45106.19;5009837;28;20435;-72
2022/06/09 01:45:17;;;;;;;14.43;2.93;;;;;;;-143.84;86.05;45121.44;5009678;28;20447;-72
2022/06/09 01:47:51;;;;;;;5.30;3.00;;;;;;;-143.84;85.79;45110.00;5009426;28;20444;-72
2022/06/09 01:50:25;;;;;;;2.80;2.60;;;;;;;-143.84;85.88;45129.03;5009462;28;20483;-74
2022/06/09 01:52:54;;;;;;;8.57;3.33;;;;;;;-143.84;85.66;45087.16;5009912;28;20452;-72
2022/06/09 01:55:25;;;;;;;7.63;3.40;;;;;;;-143.84;85.62;45110.00;5009775;28;20440;-72
2022/06/09 01:57:57;;;;;;;3.33;3.03;;;;;;;-143.84;85.15;45100.47;5009779;28;20462;-72
2022/06/09 02:00:26;;;;;;;3.43;2.80;;;;;;;-143.84;85.11;45092.88;5009551;28;20513;-72
2022/06/09 02:02:59;;;;;;;15.03;3.17;;;;;;;-143.84;84.77;45127.13;5009166;28;20532;-72
2022/06/09 02:05:30;;;;;;;3.43;2.87;;;;;;;-143.84;84.83;45127.13;5009333;28;20458;-72
2022/06/09 02:08:00;;;;;;;5.50;3.33;;;;;;;-143.84;84.73;45085.25;5009361;28;20961;-72
2022/06/09 02:10:33;;;;;;;3.73;2.93;;;;;;;-143.84;85.08;45092.88;5009464;28;20521;-72
2022/06/09 02:13:06;;;;;;;6.13;2.97;;;;;;;-143.84;84.73;45111.91;5009163;28;20439;-72
2022/06/09 02:15:37;;;;;;;2.80;2.60;;;;;;;-143.84;85.07;45106.19;5008966;28;20440;-72
2022/06/09 02:18:08;;;;;;;17.30;3.20;;;;;;;-143.84;84.92;45125.22;5009617;28;20477;-72
2022/06/09 02:20:41;;;;;;;4.00;2.63;;;;;;;-143.84;85.01;45108.09;5009499;28;20505;-72
2022/06/09 02:23:10;;;;;;;8.20;3.10;;;;;;;-143.84;84.98;45096.66;5008995;28;20451;-72
2022/06/09 02:25:37;;;;;;;3.73;3.43;;;;;;;-143.84;85.05;45108.09;5029733;28;20489;-72
2022/06/09 02:28:05;;;;;;;9.73;2.60;;;;;;;-143.84;85.18;45098.56;5048703;28;20830;-72
2022/06/09 02:30:32;;;;;;;4.23;2.90;;;;;;;-143.84;85.10;45119.53;5048721;28;20560;-72
2022/06/09 02:32:59;;;;;;;6.43;2.97;;;;;;;-143.84;84.52;45117.63;5048763;28;20499;-67
2022/06/09 02:35:28;;;;;;;4.73;3.37;;;;;;;-143.84;84.16;45079.53;5048848;28;20674;-68
2022/06/09 02:37:56;;;;;;;3.33;3.03;;;;;;;-143.84;84.80;45110.00;5048588;28;20507;-67
2022/06/09 02:40:23;;;;;;;6.57;3.90;;;;;;;-143.84;85.23;45092.88;5048723;28;20465;-67
2022/06/09 02:42:50;;;;;;;9.63;3.53;;;;;;;-143.84;85.66;45188.06;5048609;28;20858;-67
2022/06/09 02:45:18;;;;;;;9.97;3.97;;;;;;;-143.84;85.69;45087.16;5048596;28;20453;-67
2022/06/09 02:47:45;;;;;;;12.20;3.73;;;;;;;-143.84;85.62;45087.16;5052489;28;20442;-67
2022/06/09 02:50:13;;;;;;;8.87;3.00;;;;;;;-143.84;85.76;45138.56;5052564;28;20572;-67
2022/06/09 02:52:42;;;;;;;4.10;2.97;;;;;;;-143.84;86.05;45092.88;5052545;28;20441;-67
2022/06/09 02:55:10;;;;;;;10.13;3.47;;;;;;;-143.84;86.39;45096.66;5052568;28;20849;-67
2022/06/09 02:57:38;;;;;;;8.40;3.53;;;;;;;-143.84;86.60;45106.19;5052704;28;20453;-67
2022/06/09 03:00:07;;;;;;;7.37;3.67;;;;;;;-143.84;86.86;45121.44;5052659;28;21034;-67
2022/06/09 03:02:34;;;;;;;11.30;4.07;;;;;;;-143.84;86.71;45102.38;5040974;28;20438;-67
2022/06/09 03:05:02;;;;;;;7.13;3.70;;;;;;;-143.84;87.05;45110.00;5029537;28;21153;-67
2022/06/09 03:07:29;;;;;;;6.30;3.23;;;;;;;-143.84;87.17;45115.72;5032244;28;20477;-67
2022/06/09 03:09:58;;;;;;;5.73;3.50;;;;;;;-143.84;87.02;45108.09;5032263;28;20543;-67
2022/06/09 03:12:25;;;;;;;6.60;3.73;;;;;;;-143.84;87.24;45100.47;5032565;28;20453;-67
2022/06/09 03:14:53;;;;;;;4.37;3.80;;;;;;;-143.84;87.22;45111.91;5032019;28;20454;-67
2022/06/09 03:17:20;;;;;;;5.27;3.87;;;;;;;-143.84;87.02;45129.03;5021482;28;20459;-69
2022/06/09 03:19:48;;;;;;;16.67;3.60;;;;;;;-143.84;86.98;45110.00;5012629;28;20501;-68
2022/06/09 03:22:15;;;;;;;8.07;4.17;;;;;;;-143.84;87.11;45090.97;5012758;28;20450;-68
2022/06/09 03:24:42;;;;;;;3.87;3.50;;;;;;;-143.84;87.56;45111.91;5012018;28;20530;-68
2022/06/09 03:27:10;;;;;;;4.47;3.73;;;;;;;-143.84;87.71;45106.19;5013619;28;20439;-69
2022/06/09 03:29:38;;;;;;;4.80;3.70;;;;;;;-143.84;87.95;45083.34;5013146;28;20476;-69
2022/06/09 03:32:06;;;;;;;8.93;3.60;;;;;;;-143.84;87.19;45089.06;5032163;28;20438;-68
2022/06/09 03:34:33;;;;;;;6.27;3.57;;;;;;;-143.84;87.67;45090.97;5032330;28;20870;-70
2022/06/09 03:37:00;;;;;;;4.97;3.07;;;;;;;-143.84;87.73;45092.88;5032310;28;20858;-69
2022/06/09 03:39:27;;;;;;;9.20;3.80;;;;;;;-143.84;86.63;45115.72;5031758;28;20442;-73
2022/06/09 03:41:54;;;;;;;4.17;3.87;;;;;;;-143.84;85.01;45083.34;5032103;28;20512;-69
2022/06/09 03:44:23;;;;;;;7.63;5.60;;;;;;;-143.84;81.26;45075.72;5031518;28;20447;-70
2022/06/09 03:46:50;;;;;;;17.77;6.80;;;;;;;-143.84;77.41;45071.91;5031620;28;20465;-70
2022/06/09 03:49:17;;;;;;;8.30;7.60;;;;;;;-143.84;73.97;45062.41;5031776;28;20459;-69
2022/06/09 03:51:44;;;;;;;7.90;7.10;;;;;;;-143.84;70.68;45054.78;5031712;28;20471;-69
2022/06/09 03:54:12;;;;;;;6.50;5.90;;;;;;;-143.84;67.70;45062.41;5030811;28;20825;-69
2022/06/09 03:56:39;;;;;;;5.50;4.30;;;;;;;-143.84;64.71;45066.22;5031769;28;20530;-69
2022/06/09 03:59:07;;;;;;;6.23;4.10;;;;;;;-143.84;61.83;45031.94;5031567;28;20439;-69
2022/06/09 04:01:35;;;;;;;4.37;3.93;;;;;;;-143.84;60.24;45062.41;5031819;28;20537;-69
2022/06/09 04:04:02;;;;;;;5.30;3.00;;;;;;;-143.84;58.48;45031.94;5031864;28;20451;-69
2022/06/09 04:06:30;;;;;;;7.13;2.97;;;;;;;-143.84;57.58;45035.75;5031766;28;20447;-69
2022/06/09 04:08:57;;;;;;;4.90;2.00;;;;;;;-143.84;56.88;45026.22;5032004;28;20450;-69
2022/06/09 04:11:24;;;;;;;4.70;2.50;;;;;;;-143.84;55.83;45028.13;5031426;28;20521;-69
2022/06/09 04:13:52;;;;;;;3.67;2.30;;;;;;;-143.84;55.42;45030.03;5031363;28;21003;-69
2022/06/09 04:16:24;;;;;;;3.47;2.37;;;;;;;-143.84;54.63;45026.22;5031506;28;20967;-69
2022/06/09 04:18:53;;;;;;;8.50;2.77;;;;;;;-143.84;52.95;45020.50;5031400;28;20967;-69
2022/06/09 04:21:21;;;;;;;4.40;2.80;;;;;;;-143.84;52.12;44995.75;5031621;28;20450;-69
2022/06/09 04:23:49;;;;;;;3.30;2.03;;;;;;;-143.84;50.92;45014.78;5031469;28;20509;-69
2022/06/09 04:26:19;;;;;;;9.03;2.83;;;;;;;-143.84;51.67;45001.47;5031211;28;20486;-68
2022/06/09 04:28:47;;;;;;;2.33;2.03;;;;;;;-143.84;50.28;44993.84;5031449;28;20869;-69
2022/06/09 04:31:15;;;;;;;5.97;2.40;;;;;;;-143.84;48.52;45007.19;5031167;28;20512;-69
2022/06/09 04:33:43;;;;;;;2.10;1.90;;;;;;;-143.84;47.16;45009.09;5031092;28;20434;-69
2022/06/09 04:36:13;;;;;;;4.47;2.37;;;;;;;-143.84;46.29;44995.75;5031437;28;20822;-69
2022/06/09 04:38:40;;;;;;;1.93;1.80;;;;;;;-143.84;46.69;45010.97;5031750;28;20455;-69
2022/06/09 04:41:10;;;;;;;4.13;2.00;;;;;;;-143.84;45.41;45005.28;5031438;28;20443;-69
2022/06/09 04:43:37;;;;;;;6.13;2.30;;;;;;;-143.84;45.43;44995.75;5031412;28;20533;-69
2022/06/09 04:46:05;;;;;;;4.87;2.03;;;;;;;-143.84;44.44;44991.94;5031118;28;20450;-69
2022/06/09 04:48:33;;;;;;;5.37;2.20;;;;;;;-143.84;44.44;44999.56;5031389;28;20988;-69
2022/06/09 04:51:00;;;;;;;4.60;2.13;;;;;;;-143.84;44.21;44967.19;5030852;28;20995;-69
2022/06/09 04:53:29;;;;;;;3.80;2.20;;;;;;;-143.84;43.16;44976.72;5031155;28;20505;-69
2022/06/09 04:55:56;;;;;;;3.73;2.20;;;;;;;-143.84;43.45;44990.03;5031335;28;20536;-69
2022/06/09 04:58:24;;;;;;;2.53;2.07;;;;;;;-143.84;43.22;44963.38;5030851;28;20504;-69
2022/06/09 05:00:51;;;;;;;2.37;1.50;;;;;;;-143.84;42.91;44967.19;5030755;28;20438;-69
2022/06/09 05:03:19;;;;;;;3.10;2.70;;;;;;;-143.84;43.36;44961.47;5030920;28;20508;-69
2022/06/09 05:05:48;;;;;;;3.33;1.67;;;;;;;-143.84;43.22;44972.91;5031113;28;20462;-69
2022/06/09 05:08:16;;;;;;;3.87;1.80;;;;;;;-143.84;42.93;44955.75;5030151;28;20481;-69
2022/06/09 05:10:46;;;;;;;6.10;1.83;;;;;;;-143.84;42.78;44980.53;5030737;28;20466;-69
2022/06/09 05:13:15;;;;;;;3.53;2.00;;;;;;;-143.84;43.03;44971.00;5030782;28;20451;-69
2022/06/09 05:15:48;;;;;;;5.87;1.93;;;;;;;-143.84;42.35;44959.56;5030877;28;20516;-69
2022/06/09 05:18:16;;;;;;;3.80;1.83;;;;;;;-143.84;42.99;44957.66;5030987;28;20449;-69
2022/06/09 05:20:43;;;;;;;2.30;1.97;;;;;;;-143.84;42.25;44974.81;5030602;28;20480;-69
2022/06/09 05:23:10;;;;;;;3.93;2.53;;;;;;;-143.84;42.22;44972.91;5030349;28;20438;-69
2022/06/09 05:25:37;;;;;;;2.10;2.00;;;;;;;-143.84;42.65;44963.38;5040954;28;20827;-69
2022/06/09 05:28:06;;;;;;;4.83;2.50;;;;;;;-143.84;43.29;44963.38;5050567;28;20445;-69
2022/06/09 05:30:33;;;;;;;2.37;2.17;;;;;;;-143.84;42.83;44986.22;5050296;28;20559;-69
2022/06/09 05:33:01;;;;;;;2.10;1.90;;;;;;;-143.84;43.15;44971.00;5050557;28;20454;-69
2022/06/09 05:35:28;;;;;;;4.67;1.90;;;;;;;-143.84;42.68;44982.41;5050254;28;20450;-69
2022/06/09 05:46:15;;;;;;;20.70;15.80;;;;;;;-143.84;43.18;44963.38;5050708;28;20445;-72
2022/06/09 05:48:42;;;;;;;8.83;7.67;;;;;;;-143.84;42.98;44967.19;5050646;28;20511;-70
2022/06/09 05:51:10;;;;;;;32.17;21.07;;;;;;;-143.84;45.70;44955.75;5051319;28;20527;-71
2022/06/09 05:53:37;;;;;;;21.57;11.77;;;;;;;-143.84;47.66;44967.19;5049789;28;20442;-70
2022/06/09 05:56:05;;;;;;;28.07;13.03;;;;;;;-143.84;47.60;44986.22;5049434;28;20438;-71
2022/06/09 05:58:35;;;;;;;28.40;17.63;;;;;;;-143.84;48.55;44993.84;5049418;28;20445;-72
2022/06/09 06:01:04;;;;;;;19.80;8.43;;;;;;;-143.84;48.24;44980.53;5049891;28;20472;-72
2022/06/09 06:03:34;;;;;;;39.80;25.73;;;;;;;-143.84;46.94;44963.38;5050276;28;20433;-72
2022/06/09 06:08:46;;;;;;;5.47;5.07;;;;;;;-143.84;47.56;44991.94;5050706;28;20425;-71
2022/06/09 06:11:14;;;;;;;17.00;3.60;;;;;;;-143.84;47.40;44991.94;5050660;28;20891;-71
2022/06/09 06:13:44;;;;;;;16.40;4.40;;;;;;;-143.84;48.76;44969.09;5050715;28;20776;-70
2022/06/09 06:16:11;;;;;;;10.57;6.10;;;;;;;-143.84;49.30;44999.56;5047868;28;20511;-71
2022/06/09 06:18:39;;;;;;;8.73;4.33;;;;;;;-143.84;50.77;45005.28;5011275;28;20458;-71
2022/06/09 06:21:06;;;;;;;6.70;3.70;;;;;;;-143.84;50.65;44990.03;5011085;28;20448;-71
2022/06/09 06:23:34;;;;;;;17.37;8.23;;;;;;;-143.84;51.25;44978.63;5011360;28;20906;-71
2022/06/09 06:26:01;;;;;;;14.03;8.27;;;;;;;-143.84;53.18;44982.41;5010573;28;20903;-71
2022/06/09 06:28:28;;;;;;;7.43;6.30;;;;;;;-143.84;50.69;44991.94;5010516;28;20611;-71
2022/06/09 06:30:57;;;;;;;6.53;4.73;;;;;;;-143.84;50.41;45009.09;5010745;28;20904;-71
2022/06/09 06:33:25;;;;;;;4.27;3.53;;;;;;;-143.84;49.61;45001.47;5010822;28;20443;-71
2022/06/09 06:35:52;;;;;;;8.20;3.40;;;;;;;-143.84;48.25;44974.81;5010818;28;20451;-71
2022/06/09 06:38:19;;;;;;;6.37;4.50;;;;;;;-143.84;48.02;45007.19;5010873;28;20454;-71
2022/06/09 06:40:46;;;;;;;6.27;4.20;;;;;;;-143.84;47.86;44991.94;5011366;28;20444;-71
2022/06/09 06:43:14;;;;;;;10.83;4.00;;;;;;;-143.84;47.20;44999.56;5010845;28;20455;-71
2022/06/09 06:45:41;;;;;;;10.73;6.80;;;;;;;-143.84;45.62;44969.09;5022375;28;20467;-71
2022/06/09 06:48:10;;;;;;;10.97;6.40;;;;;;;-143.84;46.47;45003.38;5030610;28;20502;-71
2022/06/09 06:50:37;;;;;;;8.03;4.60;;;;;;;-143.84;45.55;44963.38;5030466;28;21006;-71
2022/06/09 06:53:05;;;;;;;10.80;4.20;;;;;;;-143.84;45.26;44988.13;5030964;28;20496;-71
2022/06/09 06:55:32;;;;;;;5.83;3.13;;;;;;;-143.84;45.47;44969.09;5030631;28;20534;-71
2022/06/09 06:57:59;;;;;;;5.53;3.27;;;;;;;-143.84;44.67;44988.13;5030801;28;20465;-71
2022/06/09 07:00:27;;;;;;;4.20;2.60;;;;;;;-143.84;45.66;45009.09;5030903;28;20438;-71
2022/06/09 07:02:54;;;;;;;3.33;2.60;;;;;;;-143.84;45.88;44980.53;5030695;28;20514;-71
2022/06/09 07:05:27;;;;;;;5.07;2.83;;;;;;;-143.84;47.66;44969.09;5032080;28;20453;-70
2022/06/09 07:07:56;;;;;;;3.03;2.20;;;;;;;-143.84;46.94;44972.91;5032801;28;20549;-70
2022/06/09 07:10:24;;;;;;;3.17;2.47;;;;;;;-143.84;47.80;44986.22;5036254;28;20435;-74
2022/06/09 07:12:51;;;;;;;62.87;46.80;;;;;;;-143.84;48.66;44978.63;5027786;28;20457;-70
2022/06/09 07:15:18;;;;;;;7.03;3.30;;;;;;;-143.84;47.46;44974.81;5032053;28;20952;-70
2022/06/09 07:17:46;;;;;;;3.00;2.50;;;;;;;-143.84;46.15;44984.31;5028829;28;20450;-70
2022/06/09 07:20:14;;;;;;;8.27;2.27;;;;;;;-143.84;47.70;44974.81;5028926;28;20448;-70
2022/06/09 07:22:44;;;;;;;3.10;2.70;;;;;;;-143.84;48.89;44967.19;5021713;28;20447;-70
2022/06/09 07:25:15;;;;;;;6.13;2.70;;;;;;;-143.84;48.67;44997.66;5024785;28;20881;-70
2022/06/09 07:27:43;;;;;;;2.80;1.90;;;;;;;-143.84;47.91;44988.13;5011389;28;20435;-70
2022/06/09 07:30:11;;;;;;;2.23;2.13;;;;;;;-143.84;47.02;44991.94;5008633;28;20455;-70
2022/06/09 07:32:38;;;;;;;11.10;2.03;;;;;;;-143.84;47.54;44963.38;5012547;28;21007;-70
2022/06/09 07:35:06;;;;;;;1.87;1.77;;;;;;;-143.84;47.44;44969.09;5023165;28;20443;-70
2022/06/09 07:37:33;;;;;;;3.93;2.50;;;;;;;-143.84;48.63;44990.03;5012128;28;20502;-70
2022/06/09 07:40:04;;;;;;;4.00;1.90;;;;;;;-143.84;49.54;44986.22;5012100;28;20944;-70
2022/06/09 07:42:31;;;;;;;4.20;2.23;;;;;;;-143.84;48.96;44959.56;5012642;28;20452;-70
2022/06/09 07:44:59;;;;;;;5.03;2.00;;;;;;;-143.84;49.49;44991.94;5013215;28;21263;-71
2022/06/09 07:47:26;;;;;;;3.17;2.43;;;;;;;-143.84;48.05;44984.31;5013933;28;20436;-70
2022/06/09 07:49:53;;;;;;;5.10;2.40;;;;;;;-143.84;49.57;44965.28;5014248;28;20434;-70
2022/06/09 07:52:21;;;;;;;3.83;1.83;;;;;;;-143.84;49.82;44993.84;5024158;28;20478;-70
2022/06/09 07:54:48;;;;;;;1.93;1.83;;;;;;;-143.84;49.43;44990.03;5025655;28;20497;-70
2022/06/09 07:57:16;;;;;;;3.63;2.27;;;;;;;-143.84;48.71;44997.66;5032393;28;20439;-70
2022/06/09 07:59:44;;;;;;;3.40;2.10;;;;;;;-143.84;51.19;44969.09;5032807;28;20886;-70
2022/06/09 08:02:12;;;;;;;3.63;1.93;;;;;;;-143.84;49.04;44963.38;5032862;28;20488;-70
2022/06/09 08:04:39;;;;;;;3.80;2.00;;;;;;;-143.84;47.92;44967.19;5032530;28;20443;-70
2022/06/09 08:07:06;;;;;;;2.37;2.07;;;;;;;-143.84;46.41;44978.63;5032711;28;20497;-70
2022/06/09 08:09:34;;;;;;;1.90;1.80;;;;;;;-143.84;46.26;44982.41;5032471;28;20450;-70
2022/06/09 08:12:01;;;;;;;1.93;1.83;;;;;;;-143.84;45.27;44984.31;5027061;28;20532;-70
2022/06/09 08:14:29;;;;;;;8.87;2.63;;;;;;;-143.84;47.66;44980.53;5014142;28;20527;-70
2022/06/09 08:16:56;;;;;;;9.60;2.20;;;;;;;-143.84;47.72;44990.03;5007952;28;20444;-70
2022/06/09 08:19:25;;;;;;;2.53;2.33;;;;;;;-143.84;49.24;45022.41;5012829;28;20490;-70
2022/06/09 08:21:52;;;;;;;4.57;2.27;;;;;;;-143.84;50.08;45010.97;5012234;28;21131;-70
2022/06/09 08:24:19;;;;;;;3.30;2.03;;;;;;;-143.84;51.25;45001.47;5011943;28;20465;-70
2022/06/09 08:26:46;;;;;;;4.47;2.13;;;;;;;-143.84;51.62;44999.56;5012531;28;20897;-70
2022/06/09 08:29:13;;;;;;;2.77;2.43;;;;;;;-143.84;51.75;45003.38;5012391;28;20879;-70
2022/06/09 08:31:43;;;;;;;5.23;4.77;;;;;;;-143.84;53.80;45022.41;5013135;28;20475;-70
2022/06/09 08:34:11;;;;;;;14.73;12.10;;;;;;;-143.84;54.77;45037.66;5013040;28;21051;-70
2022/06/09 08:36:38;;;;;;;4.30;2.37;;;;;;;-143.84;57.21;45010.97;5011014;28;20782;-70
2022/06/09 08:39:06;;;;;;;5.10;4.23;;;;;;;-143.84;55.32;45022.41;5011111;28;20490;-70
2022/06/09 08:41:38;;;;;;;7.57;3.10;;;;;;;-143.84;56.17;45031.94;5011043;28;20450;-70
2022/06/09 08:44:13;;;;;;;5.40;3.37;;;;;;;-143.84;55.81;45024.31;5009495;28;20447;-70
2022/06/09 08:46:49;;;;;;;10.37;3.10;;;;;;;-143.84;55.31;44999.56;5010553;28;20972;-70
2022/06/09 08:49:40;;;;;;;5.13;2.87;;;;;;;-143.84;55.87;44991.94;5012000;28;20448;-70
2022/06/09 08:52:17;;;;;;;3.43;2.83;;;;;;;-143.84;59.23;45001.47;5009683;28;20568;-69
2022/06/09 08:54:46;;;;;;;3.20;3.00;;;;;;;-143.84;60.52;45007.19;5012059;28;20453;-69
2022/06/09 08:57:17;;;;;;;4.13;2.47;;;;;;;-143.84;61.99;45012.88;5011865;28;20439;-70
2022/06/09 08:59:50;;;;;;;7.47;3.20;;;;;;;-143.84;61.60;45014.78;5012062;28;20443;-70
2022/06/09 09:02:28;;;;;;;5.10;3.73;;;;;;;-143.84;61.38;45005.28;5012692;28;20942;-70
2022/06/09 09:05:11;;;;;;;5.93;3.10;;;;;;;-143.84;62.57;45003.38;5014138;28;20444;-70
2022/06/09 09:07:43;;;;;;;4.47;4.00;;;;;;;-143.84;61.43;44999.56;5014103;28;20968;-72
2022/06/09 09:10:18;;;;;;;15.93;3.33;;;;;;;-143.84;61.79;45016.69;5012767;28;20439;-71
2022/06/09 09:12:54;;;;;;;3.30;3.00;;;;;;;-143.84;62.53;45024.31;5011105;28;21034;-71
2022/06/09 09:15:28;;;;;;;3.20;3.00;;;;;;;-143.84;62.17;45014.78;5011494;28;20440;-71
2022/06/09 09:18:07;;;;;;;3.40;2.67;;;;;;;-143.84;61.91;45020.50;5012353;28;20420;-72
2022/06/09 09:20:40;;;;;;;8.63;2.83;;;;;;;-143.84;61.88;44988.13;5012379;28;20451;-71
2022/06/09 09:23:14;;;;;;;5.77;2.90;;;;;;;-143.84;57.82;45016.69;5012147;28;20444;-72
2022/06/09 09:25:50;;;;;;;6.00;3.00;;;;;;;-143.84;58.96;45020.50;5034196;28;20502;-72
2022/06/09 09:28:22;;;;;;;3.17;2.80;;;;;;;-143.84;58.62;44993.84;5052092;28;20506;-71
2022/06/09 09:31:01;;;;;;;5.37;2.50;;;;;;;-143.84;58.42;44999.56;5051889;28;20437;-71
2022/06/09 09:33:31;;;;;;;5.03;3.20;;;;;;;-143.84;59.09;44984.31;5052098;28;20469;-71
2022/06/09 09:36:03;;;;;;;4.40;3.00;;;;;;;-143.84;57.92;44991.94;5051882;28;20479;-71
2022/06/09 09:38:36;;;;;;;6.03;2.80;;;;;;;-143.84;59.85;45018.59;5051432;28;20572;-71
2022/06/09 09:41:04;;;;;;;2.93;2.73;;;;;;;-143.84;61.91;45024.31;5051314;28;20442;-71
2022/06/09 09:43:37;;;;;;;2.53;2.43;;;;;;;-143.84;58.75;45030.03;5050359;28;20445;-72
2022/06/09 09:46:05;;;;;;;3.10;2.90;;;;;;;-143.84;57.68;45026.22;5049402;28;20461;-72
2022/06/09 09:48:41;;;;;;;3.40;3.10;;;;;;;-143.84;60.46;45007.19;5048793;28;20943;-73
2022/06/09 09:51:12;;;;;;;7.50;6.70;;;;;;;-143.84;63.71;45014.78;5047805;28;20452;-72
2022/06/09 09:53:52;;;;;;;11.80;8.20;;;;;;;-143.84;64.69;45014.78;5047856;28;20452;-72
2022/06/09 09:56:32;;;;;;;13.67;11.90;;;;;;;-143.84;62.47;44999.56;5049060;28;20787;-71
2022/06/09 09:59:01;;;;;;;20.23;13.77;;;;;;;-143.84;64.02;45005.28;5048990;28;20838;-69
2022/06/09 10:08:35;;;;;;;89.17;67.77;;;;;;;-143.84;64.22;45010.97;5048682;28;20449;-69
2022/06/09 10:10:12;;;;;;;10.60;8.10;;;;;;;-143.84;64.79;45049.06;5049171;28;20505;-71
2022/06/09 10:12:39;;;;;;;11.83;7.50;;;;;;;-143.84;62.45;45016.69;5048898;28;20546;-72
2022/06/09 10:15:17;;;;;;;13.97;5.90;;;;;;;-143.84;63.79;45026.22;5048869;28;20509;-72
2022/06/09 10:18:02;;;;;;;3.90;3.50;;;;;;;-143.84;60.67;45014.78;5048753;28;20441;-72
2022/06/09 10:20:37;;;;;;;18.70;7.80;;;;;;;-143.84;57.75;45022.41;5049009;28;20445;-71
2022/06/09 10:23:26;;;;;;;5.20;2.57;;;;;;;-143.84;60.49;45018.59;5048794;28;20441;-72
2022/06/09 10:26:01;;;;;;;2.83;2.67;;;;;;;-143.84;58.25;45018.59;5048531;28;20481;-72
2022/06/09 10:28:36;;;;;;;2.90;2.57;;;;;;;-143.84;57.22;45026.22;5048581;28;20437;-72
2022/06/09 10:31:10;;;;;;;2.17;2.03;;;;;;;-143.84;55.65;45043.34;5048985;28;20437;-72
2022/06/09 10:33:45;;;;;;;3.97;2.37;;;;;;;-143.84;62.56;45026.22;5048642;28;20914;-72
2022/06/09 10:36:20;;;;;;;10.83;3.57;;;;;;;-143.84;64.00;45022.41;5049024;28;20437;-70
2022/06/09 10:38:49;;;;;;;6.43;2.67;;;;;;;-143.84;58.69;44993.84;5029355;28;20462;-71
2022/06/09 10:41:25;;;;;;;4.80;1.90;;;;;;;-143.84;66.07;45003.38;5029047;28;20438;-71
2022/06/09 10:44:00;;;;;;;10.90;2.67;;;;;;;-143.84;64.54;45003.38;5028896;28;20521;-71
2022/06/09 10:46:35;;;;;;;8.03;1.80;;;;;;;-143.84;61.57;45016.69;5042124;28;20449;-71
2022/06/09 10:55:19;;;;;;;2.73;2.10;;;;;;;-143.84;63.20;44997.66;5048777;28;20428;-72
2022/06/09 10:58:02;;;;;;;3.67;2.03;;;;;;;-143.84;65.55;45028.13;5048528;28;20449;-71
2022/06/09 11:00:33;;;;;;;2.17;1.90;;;;;;;-143.84;64.25;45007.19;5048578;28;20437;-71
2022/06/09 11:03:09;;;;;;;2.70;1.97;;;;;;;-143.84;65.43;45026.22;5028664;28;20932;-71
2022/06/09 11:05:48;;;;;;;2.37;2.17;;;;;;;-143.84;65.46;45026.22;5027887;28;20434;-70
2022/06/09 11:08:26;;;;;;;4.07;3.30;;;;;;;-143.84;66.01;45014.78;5031302;28;20492;-72
2022/06/09 11:11:02;;;;;;;7.03;2.60;;;;;;;-143.84;68.03;45052.88;5031163;28;20447;-71
2022/06/09 11:13:50;;;;;;;4.10;2.03;;;;;;;-143.84;67.01;45014.78;5031208;28;20580;-72
2022/06/09 11:16:25;;;;;;;3.23;2.10;;;;;;;-143.84;69.82;45028.13;5030714;28;20438;-71
2022/06/09 11:19:08;;;;;;;1.97;1.60;;;;;;;-143.84;67.86;45009.09;5030699;28;20834;-71
2022/06/09 11:21:42;;;;;;;2.33;2.00;;;;;;;-143.84;66.91;45018.59;5031891;28;20955;-70
2022/06/09 11:24:23;;;;;;;3.60;2.40;;;;;;;-143.84;67.47;45028.13;5032806;28;20546;-69
2022/06/09 11:26:58;;;;;;;6.87;3.40;;;;;;;-143.84;70.46;45033.84;5012944;28;20844;-71
2022/06/09 11:29:42;;;;;;;5.97;4.03;;;;;;;-143.84;70.40;45050.97;5012306;28;20458;-70
2022/06/09 11:32:15;;;;;;;5.60;2.40;;;;;;;-143.84;70.46;45010.97;5014004;28;20486;-70
2022/06/09 11:35:03;;;;;;;4.03;2.30;;;;;;;-143.84;69.15;45030.03;5027632;28;20442;-71
2022/06/09 11:37:39;;;;;;;3.73;2.87;;;;;;;-143.84;68.89;45024.31;5031967;28;20876;-71
2022/06/09 11:40:20;;;;;;;3.73;1.93;;;;;;;-143.84;66.72;45012.88;5031752;28;20449;-70
2022/06/09 11:43:00;;;;;;;1.97;1.50;;;;;;;-143.84;68.24;45024.31;5031674;28;20458;-70
2022/06/09 11:45:33;;;;;;;3.93;1.90;;;;;;;-143.84;67.35;45039.53;5028124;28;20537;-71
2022/06/09 11:48:04;;;;;;;4.43;2.27;;;;;;;-143.84;67.95;45039.53;5013511;28;20447;-71
2022/06/09 11:50:37;;;;;;;4.90;1.63;;;;;;;-143.84;69.27;45031.94;5013444;28;20439;-71
2022/06/09 11:53:06;;;;;;;5.27;2.67;;;;;;;-143.84;69.42;45026.22;5012094;28;20483;-71
2022/06/09 11:58:43;;;;;;;1.93;1.70;;;;;;;-143.84;67.80;45058.59;5012201;28;20435;-72